sensor_id;sensor_type;location;lat;lon;timestamp;pressure;altitude;pressure_sealevel;temperature;humidity
69351;BME280;57106;51.446;-2.606;2023-09-08T00:01:21;101551.03;;;25.08;69.39
69351;BME280;57106;51.446;-2.606;2023-09-08T00:03:47;101550.16;;;25.06;69.15
69351;BME280;57106;51.446;-2.606;2023-09-08T00:06:12;101552.81;;;24.90;69.77
69351;BME280;57106;51.446;-2.606;2023-09-08T00:08:37;101555.29;;;24.96;69.49
69351;BME280;57106;51.446;-2.606;2023-09-08T00:11:03;101553.64;;;24.96;69.50
69351;BME280;57106;51.446;-2.606;2023-09-08T00:13:28;101555.12;;;24.93;69.50
69351;BME280;57106;51.446;-2.606;2023-09-08T00:15:53;101555.00;;;24.81;69.84
69351;BME280;57106;51.446;-2.606;2023-09-08T00:18:19;101556.66;;;24.65;70.52
69351;BME280;57106;51.446;-2.606;2023-09-08T00:20:44;101559.37;;;24.73;70.15
69351;BME280;57106;51.446;-2.606;2023-09-08T00:23:09;101558.67;;;24.66;70.26
69351;BME280;57106;51.446;-2.606;2023-09-08T00:25:34;101557.68;;;24.57;70.67
69351;BME280;57106;51.446;-2.606;2023-09-08T00:28:00;101558.36;;;24.60;70.49
69351;BME280;57106;51.446;-2.606;2023-09-08T00:30:26;101554.13;;;24.56;70.41
69351;BME280;57106;51.446;-2.606;2023-09-08T00:32:51;101552.31;;;24.39;70.80
69351;BME280;57106;51.446;-2.606;2023-09-08T00:35:17;101552.52;;;24.39;70.99
69351;BME280;57106;51.446;-2.606;2023-09-08T00:37:42;101554.93;;;24.42;70.92
69351;BME280;57106;51.446;-2.606;2023-09-08T00:40:08;101557.93;;;24.41;71.12
69351;BME280;57106;51.446;-2.606;2023-09-08T00:42:32;101553.68;;;24.34;71.50
69351;BME280;57106;51.446;-2.606;2023-09-08T00:44:58;101552.86;;;24.34;71.46
69351;BME280;57106;51.446;-2.606;2023-09-08T00:47:23;101553.57;;;24.30;71.57
69351;BME280;57106;51.446;-2.606;2023-09-08T00:49:49;101552.78;;;24.29;71.51
69351;BME280;57106;51.446;-2.606;2023-09-08T00:52:14;101556.56;;;24.27;71.35
69351;BME280;57106;51.446;-2.606;2023-09-08T00:54:40;101562.83;;;24.25;71.20
69351;BME280;57106;51.446;-2.606;2023-09-08T00:57:06;101563.95;;;24.25;71.01
69351;BME280;57106;51.446;-2.606;2023-09-08T00:59:32;101560.39;;;24.24;70.77
69351;BME280;57106;51.446;-2.606;2023-09-08T01:01:55;101556.53;;;24.36;69.83
69351;BME280;57106;51.446;-2.606;2023-09-08T01:04:21;101550.71;;;24.30;69.26
69351;BME280;57106;51.446;-2.606;2023-09-08T01:06:47;101546.27;;;24.28;69.37
69351;BME280;57106;51.446;-2.606;2023-09-08T01:09:13;101543.87;;;24.07;69.91
69351;BME280;57106;51.446;-2.606;2023-09-08T01:11:38;101547.11;;;24.17;69.94
69351;BME280;57106;51.446;-2.606;2023-09-08T01:14:03;101551.17;;;24.07;70.17
69351;BME280;57106;51.446;-2.606;2023-09-08T01:16:28;101547.15;;;24.15;70.02
69351;BME280;57106;51.446;-2.606;2023-09-08T01:18:54;101544.10;;;23.95;70.53
69351;BME280;57106;51.446;-2.606;2023-09-08T01:21:35;101541.87;;;23.97;70.57
69351;BME280;57106;51.446;-2.606;2023-09-08T01:23:57;101535.29;;;23.92;70.83
69351;BME280;57106;51.446;-2.606;2023-09-08T01:26:10;101533.05;;;23.94;70.86
69351;BME280;57106;51.446;-2.606;2023-09-08T01:28:36;101534.10;;;24.00;70.57
69351;BME280;57106;51.446;-2.606;2023-09-08T01:31:00;101532.55;;;23.90;70.88
69351;BME280;57106;51.446;-2.606;2023-09-08T01:33:26;101531.94;;;23.90;71.03
69351;BME280;57106;51.446;-2.606;2023-09-08T01:35:51;101528.89;;;23.82;71.44
69351;BME280;57106;51.446;-2.606;2023-09-08T01:38:17;101526.53;;;23.80;71.40
69351;BME280;57106;51.446;-2.606;2023-09-08T01:40:42;101527.15;;;23.77;71.77
69351;BME280;57106;51.446;-2.606;2023-09-08T01:43:07;101524.75;;;23.75;71.93
69351;BME280;57106;51.446;-2.606;2023-09-08T01:45:33;101523.49;;;23.79;71.71
69351;BME280;57106;51.446;-2.606;2023-09-08T01:47:58;101522.68;;;23.83;71.52
69351;BME280;57106;51.446;-2.606;2023-09-08T01:50:24;101524.52;;;23.86;71.46
69351;BME280;57106;51.446;-2.606;2023-09-08T01:52:50;101525.18;;;23.78;71.86
69351;BME280;57106;51.446;-2.606;2023-09-08T01:55:14;101524.05;;;23.84;71.73
69351;BME280;57106;51.446;-2.606;2023-09-08T01:57:40;101525.03;;;23.80;71.95
69351;BME280;57106;51.446;-2.606;2023-09-08T02:00:06;101526.17;;;23.81;71.63
69351;BME280;57106;51.446;-2.606;2023-09-08T02:04:57;101528.66;;;23.95;70.03
69351;BME280;57106;51.446;-2.606;2023-09-08T02:07:22;101530.90;;;23.90;69.59
69351;BME280;57106;51.446;-2.606;2023-09-08T02:09:47;101532.44;;;23.67;69.41
69351;BME280;57106;51.446;-2.606;2023-09-08T02:12:12;101532.50;;;23.72;69.42
69351;BME280;57106;51.446;-2.606;2023-09-08T02:14:38;101536.04;;;23.83;68.78
69351;BME280;57106;51.446;-2.606;2023-09-08T02:17:04;101536.50;;;23.71;69.02
69351;BME280;57106;51.446;-2.606;2023-09-08T02:19:29;101533.52;;;23.77;68.69
69351;BME280;57106;51.446;-2.606;2023-09-08T02:21:54;101533.63;;;23.65;69.23
69351;BME280;57106;51.446;-2.606;2023-09-08T02:24:19;101533.79;;;23.62;69.66
69351;BME280;57106;51.446;-2.606;2023-09-08T02:26:45;101535.37;;;23.52;70.24
69351;BME280;57106;51.446;-2.606;2023-09-08T02:29:11;101534.72;;;23.58;70.15
69351;BME280;57106;51.446;-2.606;2023-09-08T02:31:36;101534.08;;;23.52;70.43
69351;BME280;57106;51.446;-2.606;2023-09-08T02:34:02;101533.42;;;23.41;70.67
69351;BME280;57106;51.446;-2.606;2023-09-08T02:36:26;101531.21;;;23.37;70.83
69351;BME280;57106;51.446;-2.606;2023-09-08T02:38:52;101525.69;;;23.44;70.82
69351;BME280;57106;51.446;-2.606;2023-09-08T02:41:17;101524.16;;;23.37;71.04
69351;BME280;57106;51.446;-2.606;2023-09-08T02:43:42;101521.42;;;23.39;71.05
69351;BME280;57106;51.446;-2.606;2023-09-08T02:46:08;101515.32;;;23.40;71.10
69351;BME280;57106;51.446;-2.606;2023-09-08T02:48:33;101508.77;;;23.41;71.11
69351;BME280;57106;51.446;-2.606;2023-09-08T02:50:59;101504.21;;;23.32;71.57
69351;BME280;57106;51.446;-2.606;2023-09-08T02:53:24;101504.41;;;23.39;71.50
69351;BME280;57106;51.446;-2.606;2023-09-08T02:55:49;101508.67;;;23.40;71.41
69351;BME280;57106;51.446;-2.606;2023-09-08T02:58:15;101513.96;;;23.29;71.87
69351;BME280;57106;51.446;-2.606;2023-09-08T03:00:40;101511.72;;;23.35;71.63
69351;BME280;57106;51.446;-2.606;2023-09-08T03:03:06;101514.51;;;23.30;71.75
69351;BME280;57106;51.446;-2.606;2023-09-08T03:05:31;101519.32;;;23.31;71.64
69351;BME280;57106;51.446;-2.606;2023-09-08T03:07:56;101518.08;;;23.39;71.10
69351;BME280;57106;51.446;-2.606;2023-09-08T03:10:21;101518.92;;;23.33;70.80
69351;BME280;57106;51.446;-2.606;2023-09-08T03:12:47;101519.75;;;23.34;70.72
69351;BME280;57106;51.446;-2.606;2023-09-08T03:15:12;101522.60;;;23.18;70.70
69351;BME280;57106;51.446;-2.606;2023-09-08T03:17:38;101524.38;;;23.26;70.58
69351;BME280;57106;51.446;-2.606;2023-09-08T03:20:04;101521.65;;;23.32;70.13
69351;BME280;57106;51.446;-2.606;2023-09-08T03:22:28;101519.45;;;23.34;69.85
69351;BME280;57106;51.446;-2.606;2023-09-08T03:24:54;101518.09;;;23.25;69.87
69351;BME280;57106;51.446;-2.606;2023-09-08T03:27:19;101516.87;;;23.28;70.10
69351;BME280;57106;51.446;-2.606;2023-09-08T03:29:44;101504.78;;;23.37;69.79
69351;BME280;57106;51.446;-2.606;2023-09-08T03:32:10;101506.01;;;23.16;70.28
69351;BME280;57106;51.446;-2.606;2023-09-08T03:34:35;101505.97;;;23.19;70.15
69351;BME280;57106;51.446;-2.606;2023-09-08T03:37:01;101508.42;;;23.11;70.59
69351;BME280;57106;51.446;-2.606;2023-09-08T03:39:26;101510.44;;;23.20;70.39
69351;BME280;57106;51.446;-2.606;2023-09-08T03:41:51;101513.16;;;23.21;70.27
69351;BME280;57106;51.446;-2.606;2023-09-08T03:44:17;101515.27;;;23.17;70.41
69351;BME280;57106;51.446;-2.606;2023-09-08T03:46:43;101524.56;;;23.18;70.36
69351;BME280;57106;51.446;-2.606;2023-09-08T03:49:08;101527.11;;;23.21;70.33
69351;BME280;57106;51.446;-2.606;2023-09-08T03:51:33;101525.87;;;23.17;70.30
69351;BME280;57106;51.446;-2.606;2023-09-08T03:53:59;101525.69;;;23.13;70.03
69351;BME280;57106;51.446;-2.606;2023-09-08T03:56:24;101531.22;;;23.05;70.65
69351;BME280;57106;51.446;-2.606;2023-09-08T03:58:49;101533.13;;;23.19;70.07
69351;BME280;57106;51.446;-2.606;2023-09-08T04:01:15;101527.52;;;23.21;69.95
69351;BME280;57106;51.446;-2.606;2023-09-08T04:03:40;101520.58;;;23.20;69.95
69351;BME280;57106;51.446;-2.606;2023-09-08T04:06:06;101521.82;;;22.98;70.66
69351;BME280;57106;51.446;-2.606;2023-09-08T04:08:31;101522.60;;;23.18;69.76
69351;BME280;57106;51.446;-2.606;2023-09-08T04:10:56;101515.97;;;23.13;70.08
69351;BME280;57106;51.446;-2.606;2023-09-08T04:13:22;101517.82;;;23.24;69.56
69351;BME280;57106;51.446;-2.606;2023-09-08T04:15:47;101520.57;;;22.95;70.69
69351;BME280;57106;51.446;-2.606;2023-09-08T04:18:13;101522.94;;;23.01;70.95
69351;BME280;57106;51.446;-2.606;2023-09-08T04:32:45;101523.96;;;23.33;70.27
69351;BME280;57106;51.446;-2.606;2023-09-08T04:35:10;101526.46;;;23.46;69.75
69351;BME280;57106;51.446;-2.606;2023-09-08T04:37:36;101531.20;;;23.29;70.54
69351;BME280;57106;51.446;-2.606;2023-09-08T04:40:02;101525.64;;;23.24;69.40
69351;BME280;57106;51.446;-2.606;2023-09-08T04:42:27;101520.89;;;23.19;69.36
69351;BME280;57106;51.446;-2.606;2023-09-08T04:47:17;101532.63;;;23.32;68.34
69351;BME280;57106;51.446;-2.606;2023-09-08T04:52:08;101533.84;;;23.37;67.55
69351;BME280;57106;51.446;-2.606;2023-09-08T04:54:33;101538.21;;;23.35;67.77
69351;BME280;57106;51.446;-2.606;2023-09-08T04:56:58;101542.14;;;23.34;68.30
69351;BME280;57106;51.446;-2.606;2023-09-08T04:59:24;101541.06;;;23.51;67.49
69351;BME280;57106;51.446;-2.606;2023-09-08T05:01:49;101538.34;;;23.57;66.77
69351;BME280;57106;51.446;-2.606;2023-09-08T05:04:14;101539.60;;;23.65;66.27
69351;BME280;57106;51.446;-2.606;2023-09-08T05:06:39;101543.11;;;23.65;66.17
69351;BME280;57106;51.446;-2.606;2023-09-08T05:09:05;101545.29;;;23.52;66.71
69351;BME280;57106;51.446;-2.606;2023-09-08T05:11:30;101543.77;;;23.37;67.23
69351;BME280;57106;51.446;-2.606;2023-09-08T05:13:56;101541.41;;;23.40;67.44
69351;BME280;57106;51.446;-2.606;2023-09-08T05:16:21;101537.79;;;23.08;68.95
69351;BME280;57106;51.446;-2.606;2023-09-08T05:18:46;101536.37;;;23.07;69.18
69351;BME280;57106;51.446;-2.606;2023-09-08T05:21:12;101532.47;;;23.22;68.85
69351;BME280;57106;51.446;-2.606;2023-09-08T05:23:37;101529.20;;;23.09;69.62
69351;BME280;57106;51.446;-2.606;2023-09-08T05:26:02;101529.26;;;22.96;70.42
69351;BME280;57106;51.446;-2.606;2023-09-08T05:28:27;101529.74;;;22.97;70.27
69351;BME280;57106;51.446;-2.606;2023-09-08T05:30:53;101535.69;;;23.01;70.25
69351;BME280;57106;51.446;-2.606;2023-09-08T05:33:19;101544.69;;;22.91;70.53
69351;BME280;57106;51.446;-2.606;2023-09-08T05:35:45;101551.93;;;22.79;71.28
69351;BME280;57106;51.446;-2.606;2023-09-08T05:38:09;101551.97;;;22.81;70.71
69351;BME280;57106;51.446;-2.606;2023-09-08T05:40:34;101550.02;;;22.98;70.02
69351;BME280;57106;51.446;-2.606;2023-09-08T05:42:59;101551.20;;;22.92;70.37
69351;BME280;57106;51.446;-2.606;2023-09-08T05:45:25;101553.65;;;22.96;69.96
69351;BME280;57106;51.446;-2.606;2023-09-08T05:47:50;101550.37;;;22.90;70.14
69351;BME280;57106;51.446;-2.606;2023-09-08T05:50:16;101551.82;;;23.00;69.47
69351;BME280;57106;51.446;-2.606;2023-09-08T05:52:41;101555.63;;;23.01;69.21
69351;BME280;57106;51.446;-2.606;2023-09-08T05:55:07;101560.66;;;22.92;69.54
69351;BME280;57106;51.446;-2.606;2023-09-08T05:57:32;101562.30;;;23.04;69.09
69351;BME280;57106;51.446;-2.606;2023-09-08T05:59:57;101562.91;;;22.96;69.11
69351;BME280;57106;51.446;-2.606;2023-09-08T06:02:23;101565.63;;;23.05;68.95
69351;BME280;57106;51.446;-2.606;2023-09-08T06:04:48;101571.69;;;23.22;68.41
69351;BME280;57106;51.446;-2.606;2023-09-08T06:07:14;101574.44;;;23.18;68.69
69351;BME280;57106;51.446;-2.606;2023-09-08T06:09:39;101572.78;;;23.26;68.34
69351;BME280;57106;51.446;-2.606;2023-09-08T06:12:06;101565.61;;;23.24;68.99
69351;BME280;57106;51.446;-2.606;2023-09-08T06:14:30;101566.84;;;23.31;68.52
69351;BME280;57106;51.446;-2.606;2023-09-08T06:16:55;101570.34;;;23.22;68.87
69351;BME280;57106;51.446;-2.606;2023-09-08T06:19:21;101577.50;;;23.28;68.35
69351;BME280;57106;51.446;-2.606;2023-09-08T06:21:46;101576.03;;;23.31;68.48
69351;BME280;57106;51.446;-2.606;2023-09-08T06:24:11;101582.57;;;23.36;68.42
69351;BME280;57106;51.446;-2.606;2023-09-08T06:26:37;101587.79;;;23.43;68.44
69351;BME280;57106;51.446;-2.606;2023-09-08T06:29:02;101592.31;;;23.58;67.68
69351;BME280;57106;51.446;-2.606;2023-09-08T06:31:27;101594.52;;;23.45;68.21
69351;BME280;57106;51.446;-2.606;2023-09-08T06:33:53;101594.77;;;23.43;68.42
69351;BME280;57106;51.446;-2.606;2023-09-08T06:36:19;101588.56;;;23.56;68.14
69351;BME280;57106;51.446;-2.606;2023-09-08T06:38:43;101591.26;;;23.42;68.28
69351;BME280;57106;51.446;-2.606;2023-09-08T06:41:09;101594.98;;;23.55;67.94
69351;BME280;57106;51.446;-2.606;2023-09-08T06:43:34;101598.29;;;23.46;68.07
69351;BME280;57106;51.446;-2.606;2023-09-08T06:46:00;101601.44;;;23.40;68.32
69351;BME280;57106;51.446;-2.606;2023-09-08T06:48:25;101601.96;;;23.56;67.93
69351;BME280;57106;51.446;-2.606;2023-09-08T06:50:53;101593.57;;;23.51;68.09
69351;BME280;57106;51.446;-2.606;2023-09-08T06:53:16;101588.76;;;23.53;67.97
69351;BME280;57106;51.446;-2.606;2023-09-08T06:55:41;101584.63;;;23.44;68.09
69351;BME280;57106;51.446;-2.606;2023-09-08T06:58:06;101574.05;;;23.37;68.21
69351;BME280;57106;51.446;-2.606;2023-09-08T07:00:32;101569.24;;;23.54;68.06
69351;BME280;57106;51.446;-2.606;2023-09-08T07:02:57;101571.10;;;23.57;68.11
69351;BME280;57106;51.446;-2.606;2023-09-08T07:05:22;101572.30;;;23.50;68.34
69351;BME280;57106;51.446;-2.606;2023-09-08T07:07:47;101575.50;;;23.49;67.90
69351;BME280;57106;51.446;-2.606;2023-09-08T07:10:13;101579.18;;;23.63;67.41
69351;BME280;57106;51.446;-2.606;2023-09-08T07:12:38;101580.37;;;23.54;68.06
69351;BME280;57106;51.446;-2.606;2023-09-08T07:15:05;101577.91;;;23.72;66.17
69351;BME280;57106;51.446;-2.606;2023-09-08T07:17:30;101581.06;;;23.69;65.02
69351;BME280;57106;51.446;-2.606;2023-09-08T07:19:55;101582.41;;;23.73;65.02
69351;BME280;57106;51.446;-2.606;2023-09-08T07:22:21;101577.97;;;23.83;64.53
69351;BME280;57106;51.446;-2.606;2023-09-08T07:24:45;101574.47;;;23.86;63.85
69351;BME280;57106;51.446;-2.606;2023-09-08T07:27:11;101574.59;;;23.93;64.21
69351;BME280;57106;51.446;-2.606;2023-09-08T07:29:36;101577.06;;;24.01;64.37
69351;BME280;57106;51.446;-2.606;2023-09-08T07:32:02;101584.22;;;24.31;62.89
69351;BME280;57106;51.446;-2.606;2023-09-08T07:34:27;101586.55;;;24.30;62.96
69351;BME280;57106;51.446;-2.606;2023-09-08T07:36:53;101588.44;;;24.39;62.74
69351;BME280;57106;51.446;-2.606;2023-09-08T07:39:18;101595.05;;;24.40;62.32
69351;BME280;57106;51.446;-2.606;2023-09-08T07:41:43;101596.23;;;24.52;62.06
69351;BME280;57106;51.446;-2.606;2023-09-08T07:44:08;101597.66;;;24.58;61.70
69351;BME280;57106;51.446;-2.606;2023-09-08T07:46:34;101597.08;;;24.66;61.47
69351;BME280;57106;51.446;-2.606;2023-09-08T07:49:00;101596.73;;;24.87;61.13
69351;BME280;57106;51.446;-2.606;2023-09-08T07:51:24;101597.35;;;24.79;61.71
69351;BME280;57106;51.446;-2.606;2023-09-08T07:53:50;101599.91;;;24.72;62.90
69351;BME280;57106;51.446;-2.606;2023-09-08T07:56:15;101604.40;;;24.68;64.03
69351;BME280;57106;51.446;-2.606;2023-09-08T07:58:40;101609.28;;;24.76;63.90
69351;BME280;57106;51.446;-2.606;2023-09-08T08:01:06;101614.92;;;24.80;63.76
69351;BME280;57106;51.446;-2.606;2023-09-08T08:03:31;101610.78;;;24.76;64.39
69351;BME280;57106;51.446;-2.606;2023-09-08T08:05:57;101608.88;;;24.80;64.34
69351;BME280;57106;51.446;-2.606;2023-09-08T08:08:23;101605.67;;;25.02;63.38
69351;BME280;57106;51.446;-2.606;2023-09-08T08:10:48;101610.25;;;25.00;63.52
69351;BME280;57106;51.446;-2.606;2023-09-08T08:13:15;101613.92;;;25.10;63.36
69351;BME280;57106;51.446;-2.606;2023-09-08T08:15:41;101619.06;;;25.26;62.38
69351;BME280;57106;51.446;-2.606;2023-09-08T08:18:05;101621.82;;;25.24;62.66
69351;BME280;57106;51.446;-2.606;2023-09-08T08:20:31;101617.33;;;25.44;62.27
69351;BME280;57106;51.446;-2.606;2023-09-08T08:22:56;101607.67;;;25.44;62.23
69351;BME280;57106;51.446;-2.606;2023-09-08T08:25:22;101607.97;;;25.48;62.15
69351;BME280;57106;51.446;-2.606;2023-09-08T08:27:47;101614.82;;;25.51;62.42
69351;BME280;57106;51.446;-2.606;2023-09-08T08:30:13;101618.56;;;25.53;61.98
69351;BME280;57106;51.446;-2.606;2023-09-08T08:32:38;101619.07;;;25.27;62.41
69351;BME280;57106;51.446;-2.606;2023-09-08T08:35:04;101619.82;;;25.42;62.05
69351;BME280;57106;51.446;-2.606;2023-09-08T08:37:28;101619.21;;;25.40;62.46
69351;BME280;57106;51.446;-2.606;2023-09-08T08:39:53;101618.31;;;25.76;61.42
69351;BME280;57106;51.446;-2.606;2023-09-08T08:42:19;101621.51;;;25.77;60.81
69351;BME280;57106;51.446;-2.606;2023-09-08T08:44:44;101627.89;;;25.86;60.41
69351;BME280;57106;51.446;-2.606;2023-09-08T08:47:10;101627.79;;;25.84;60.58
69351;BME280;57106;51.446;-2.606;2023-09-08T08:49:36;101627.01;;;26.04;60.23
69351;BME280;57106;51.446;-2.606;2023-09-08T08:52:00;101628.61;;;26.14;60.22
69351;BME280;57106;51.446;-2.606;2023-09-08T08:54:25;101630.35;;;26.02;59.71
69351;BME280;57106;51.446;-2.606;2023-09-08T08:56:50;101634.86;;;26.17;59.44
69351;BME280;57106;51.446;-2.606;2023-09-08T08:59:16;101636.13;;;26.09;59.07
69351;BME280;57106;51.446;-2.606;2023-09-08T09:01:42;101633.77;;;26.11;59.62
69351;BME280;57106;51.446;-2.606;2023-09-08T09:04:06;101626.59;;;26.39;58.02
69351;BME280;57106;51.446;-2.606;2023-09-08T09:06:31;101627.18;;;26.24;58.34
69351;BME280;57106;51.446;-2.606;2023-09-08T09:08:57;101623.92;;;26.37;56.70
69351;BME280;57106;51.446;-2.606;2023-09-08T09:11:22;101629.26;;;26.11;57.36
69351;BME280;57106;51.446;-2.606;2023-09-08T09:13:48;101624.88;;;26.17;57.88
69351;BME280;57106;51.446;-2.606;2023-09-08T09:16:14;101625.43;;;26.37;57.96
69351;BME280;57106;51.446;-2.606;2023-09-08T09:21:04;101635.31;;;26.37;56.75
69351;BME280;57106;51.446;-2.606;2023-09-08T09:23:31;101635.50;;;26.44;56.71
69351;BME280;57106;51.446;-2.606;2023-09-08T09:25:55;101632.15;;;26.56;56.98
69351;BME280;57106;51.446;-2.606;2023-09-08T09:28:20;101635.36;;;26.68;56.21
69351;BME280;57106;51.446;-2.606;2023-09-08T09:30:47;101638.01;;;26.89;55.76
69351;BME280;57106;51.446;-2.606;2023-09-08T09:33:10;101638.03;;;26.97;55.41
69351;BME280;57106;51.446;-2.606;2023-09-08T09:35:40;101633.53;;;27.04;55.88
69351;BME280;57106;51.446;-2.606;2023-09-08T09:38:02;101632.71;;;27.31;55.66
69351;BME280;57106;51.446;-2.606;2023-09-08T09:40:28;101632.22;;;27.30;56.03
69351;BME280;57106;51.446;-2.606;2023-09-08T09:42:52;101629.91;;;26.98;56.57
69351;BME280;57106;51.446;-2.606;2023-09-08T09:45:17;101630.49;;;27.09;56.58
69351;BME280;57106;51.446;-2.606;2023-09-08T09:47:43;101630.52;;;27.17;57.20
69351;BME280;57106;51.446;-2.606;2023-09-08T09:50:08;101627.03;;;27.28;56.96
69351;BME280;57106;51.446;-2.606;2023-09-08T09:52:38;101629.60;;;27.42;56.47
69351;BME280;57106;51.446;-2.606;2023-09-08T09:54:58;101629.45;;;27.36;57.25
69351;BME280;57106;51.446;-2.606;2023-09-08T09:57:24;101629.40;;;27.60;56.95
69351;BME280;57106;51.446;-2.606;2023-09-08T09:59:49;101632.15;;;27.68;55.87
69351;BME280;57106;51.446;-2.606;2023-09-08T10:02:16;101633.60;;;27.79;55.81
69351;BME280;57106;51.446;-2.606;2023-09-08T10:04:40;101632.69;;;27.81;55.63
69351;BME280;57106;51.446;-2.606;2023-09-08T10:07:04;101629.29;;;27.58;56.22
69351;BME280;57106;51.446;-2.606;2023-09-08T10:09:29;101632.81;;;27.57;56.17
69351;BME280;57106;51.446;-2.606;2023-09-08T10:12:01;101632.15;;;27.59;56.02
69351;BME280;57106;51.446;-2.606;2023-09-08T10:14:21;101637.89;;;27.73;55.61
69351;BME280;57106;51.446;-2.606;2023-09-08T10:16:46;101639.26;;;27.74;54.74
69351;BME280;57106;51.446;-2.606;2023-09-08T10:19:11;101640.10;;;27.78;53.93
69351;BME280;57106;51.446;-2.606;2023-09-08T10:21:40;101635.47;;;27.62;53.97
69351;BME280;57106;51.446;-2.606;2023-09-08T10:24:09;101635.25;;;27.35;54.84
69351;BME280;57106;51.446;-2.606;2023-09-08T10:26:28;101636.80;;;26.99;54.27
69351;BME280;57106;51.446;-2.606;2023-09-08T10:28:53;101636.29;;;27.25;54.30
69351;BME280;57106;51.446;-2.606;2023-09-08T10:31:17;101637.03;;;27.32;53.84
69351;BME280;57106;51.446;-2.606;2023-09-08T10:33:43;101639.40;;;27.55;52.99
69351;BME280;57106;51.446;-2.606;2023-09-08T10:36:08;101640.67;;;27.52;53.30
69351;BME280;57106;51.446;-2.606;2023-09-08T10:38:34;101640.90;;;27.51;53.19
69351;BME280;57106;51.446;-2.606;2023-09-08T10:43:25;101639.43;;;27.77;52.95
69351;BME280;57106;51.446;-2.606;2023-09-08T10:45:49;101641.66;;;27.84;52.55
69351;BME280;57106;51.446;-2.606;2023-09-08T10:48:14;101639.47;;;27.92;52.33
69351;BME280;57106;51.446;-2.606;2023-09-08T10:50:40;101641.75;;;27.78;52.75
69351;BME280;57106;51.446;-2.606;2023-09-08T10:53:06;101639.27;;;27.65;53.89
69351;BME280;57106;51.446;-2.606;2023-09-08T10:55:35;101636.24;;;27.38;54.57
69351;BME280;57106;51.446;-2.606;2023-09-08T10:57:55;101635.24;;;28.02;53.54
69351;BME280;57106;51.446;-2.606;2023-09-08T11:00:20;101633.89;;;28.33;52.55
69351;BME280;57106;51.446;-2.606;2023-09-08T11:02:49;101630.73;;;28.16;52.36
69351;BME280;57106;51.446;-2.606;2023-09-08T11:05:12;101628.47;;;28.14;52.38
69351;BME280;57106;51.446;-2.606;2023-09-08T11:07:36;101624.98;;;28.04;52.45
69351;BME280;57106;51.446;-2.606;2023-09-08T11:10:00;101623.82;;;28.24;52.19
69351;BME280;57106;51.446;-2.606;2023-09-08T11:12:27;101621.10;;;28.04;52.11
69351;BME280;57106;51.446;-2.606;2023-09-08T11:14:51;101616.85;;;28.34;51.88
69351;BME280;57106;51.446;-2.606;2023-09-08T11:17:16;101615.10;;;28.40;51.48
69351;BME280;57106;51.446;-2.606;2023-09-08T11:19:44;101612.85;;;28.35;50.64
69351;BME280;57106;51.446;-2.606;2023-09-08T11:22:07;101608.31;;;28.62;49.21
69351;BME280;57106;51.446;-2.606;2023-09-08T11:24:32;101609.03;;;28.57;48.54
69351;BME280;57106;51.446;-2.606;2023-09-08T11:26:57;101608.86;;;28.74;48.29
69351;BME280;57106;51.446;-2.606;2023-09-08T11:29:23;101606.86;;;28.85;47.99
69351;BME280;57106;51.446;-2.606;2023-09-08T11:31:52;101604.68;;;28.58;48.66
69351;BME280;57106;51.446;-2.606;2023-09-08T11:34:12;101607.02;;;28.73;48.96
69351;BME280;57106;51.446;-2.606;2023-09-08T11:36:38;101608.52;;;28.85;48.89
69351;BME280;57106;51.446;-2.606;2023-09-08T11:39:04;101608.56;;;29.02;48.97
69351;BME280;57106;51.446;-2.606;2023-09-08T11:41:28;101607.06;;;28.94;49.49
69351;BME280;57106;51.446;-2.606;2023-09-08T11:43:53;101611.24;;;28.94;49.49
69351;BME280;57106;51.446;-2.606;2023-09-08T11:46:19;101611.64;;;28.93;49.62
69351;BME280;57106;51.446;-2.606;2023-09-08T11:48:43;101613.80;;;28.88;49.18
69351;BME280;57106;51.446;-2.606;2023-09-08T11:51:09;101613.54;;;28.91;49.23
69351;BME280;57106;51.446;-2.606;2023-09-08T11:53:40;101609.20;;;29.01;49.09
69351;BME280;57106;51.446;-2.606;2023-09-08T11:56:00;101605.48;;;28.81;49.74
69351;BME280;57106;51.446;-2.606;2023-09-08T11:58:30;101604.53;;;28.85;50.12
69351;BME280;57106;51.446;-2.606;2023-09-08T12:00:50;101605.83;;;28.97;49.80
69351;BME280;57106;51.446;-2.606;2023-09-08T12:03:15;101605.01;;;29.04;49.94
69351;BME280;57106;51.446;-2.606;2023-09-08T12:05:40;101608.95;;;29.09;49.67
69351;BME280;57106;51.446;-2.606;2023-09-08T12:08:06;101605.84;;;29.14;49.61
69351;BME280;57106;51.446;-2.606;2023-09-08T12:10:40;101606.18;;;28.92;50.10
69351;BME280;57106;51.446;-2.606;2023-09-08T12:12:56;101604.22;;;28.94;50.18
69351;BME280;57106;51.446;-2.606;2023-09-08T12:15:29;101599.66;;;28.99;49.91
69351;BME280;57106;51.446;-2.606;2023-09-08T12:17:50;101599.77;;;29.20;49.45
69351;BME280;57106;51.446;-2.606;2023-09-08T12:20:13;101598.12;;;29.28;49.66
69351;BME280;57106;51.446;-2.606;2023-09-08T12:22:36;101598.58;;;29.48;48.41
69351;BME280;57106;51.446;-2.606;2023-09-08T12:25:08;101597.16;;;29.49;48.43
69351;BME280;57106;51.446;-2.606;2023-09-08T12:27:27;101592.43;;;29.68;48.42
69351;BME280;57106;51.446;-2.606;2023-09-08T12:29:53;101593.43;;;29.80;48.42
69351;BME280;57106;51.446;-2.606;2023-09-08T12:32:17;101592.39;;;29.80;48.59
69351;BME280;57106;51.446;-2.606;2023-09-08T12:34:43;101588.59;;;29.99;48.36
69351;BME280;57106;51.446;-2.606;2023-09-08T12:37:07;101589.29;;;29.91;47.88
69351;BME280;57106;51.446;-2.606;2023-09-08T12:39:32;101588.97;;;29.60;48.92
69351;BME280;57106;51.446;-2.606;2023-09-08T12:41:58;101586.23;;;29.91;47.98
69351;BME280;57106;51.446;-2.606;2023-09-08T12:44:23;101588.49;;;29.70;48.49
69351;BME280;57106;51.446;-2.606;2023-09-08T12:46:48;101585.75;;;29.64;48.52
69351;BME280;57106;51.446;-2.606;2023-09-08T12:49:13;101583.42;;;29.77;48.28
69351;BME280;57106;51.446;-2.606;2023-09-08T12:51:39;101586.87;;;29.62;48.97
69351;BME280;57106;51.446;-2.606;2023-09-08T12:54:09;101590.56;;;29.83;48.90